Time;durP1;ratioP1;P1;durP2;ratioP2;P2;SDS_P1;SDS_P2;PMS_P1;PMS_P2;Temp;Humidity;BMP_temperature;BMP_pressure;BME280_temperature;BME280_humidity;BME280_pressure;Samples;Min_cycle;Max_cycle;Signal;HPM_P1;HPM_P2
2021/12/29 00:00:03;;;;;;;38.42;7.82;;;;;;;;;;5030712;28;20119;-70
2021/12/29 00:02:29;;;;;;;27.52;6.30;;;;;;;;;;5029226;28;20085;-70
2021/12/29 00:04:55;;;;;;;21.00;6.28;;;;;;;;;;5030931;28;20092;-70
2021/12/29 00:07:21;;;;;;;18.77;5.82;;;;;;;;;;5030936;28;20041;-69
2021/12/29 00:09:47;;;;;;;23.77;5.90;;;;;;;;;;5031386;28;20045;-70
2021/12/29 00:12:15;;;;;;;21.40;5.30;;;;;;;;;;5029770;28;20040;-70
2021/12/29 00:14:41;;;;;;;22.77;6.03;;;;;;;;;;5030081;28;20045;-69
2021/12/29 00:17:07;;;;;;;19.55;5.60;;;;;;;;;;5031780;28;20081;-70
2021/12/29 00:19:33;;;;;;;17.95;5.80;;;;;;;;;;5030496;28;20072;-70
2021/12/29 00:21:59;;;;;;;21.52;5.22;;;;;;;;;;5030226;28;20033;-70
2021/12/29 00:24:25;;;;;;;19.73;5.25;;;;;;;;;;5030800;28;20116;-69
2021/12/29 00:26:51;;;;;;;16.05;4.82;;;;;;;;;;5030539;28;20541;-69
2021/12/29 00:29:17;;;;;;;17.95;5.40;;;;;;;;;;5031335;28;20083;-69
2021/12/29 00:31:43;;;;;;;15.23;5.15;;;;;;;;;;5029055;28;20038;-69
2021/12/29 00:34:09;;;;;;;19.48;5.05;;;;;;;;;;5030765;28;20036;-70
2021/12/29 00:36:35;;;;;;;15.25;4.85;;;;;;;;;;5029358;28;20038;-70
2021/12/29 00:39:01;;;;;;;17.45;4.97;;;;;;;;;;5031010;28;20061;-70
2021/12/29 00:41:27;;;;;;;14.68;5.07;;;;;;;;;;5029715;28;20033;-69
2021/12/29 00:43:55;;;;;;;16.17;5.05;;;;;;;;;;5030797;28;20133;-69
2021/12/29 00:46:21;;;;;;;16.73;4.93;;;;;;;;;;5045788;28;20045;-69
2021/12/29 00:48:48;;;;;;;22.05;5.30;;;;;;;;;;5030076;28;20069;-70
2021/12/29 00:51:14;;;;;;;15.95;4.88;;;;;;;;;;5029904;28;20038;-70
2021/12/29 00:53:40;;;;;;;17.77;5.25;;;;;;;;;;5031292;28;20391;-69
2021/12/29 00:56:06;;;;;;;19.13;5.28;;;;;;;;;;5033586;28;20495;-69
2021/12/29 00:58:33;;;;;;;15.77;5.22;;;;;;;;;;5034892;28;20041;-70
2021/12/29 01:00:59;;;;;;;26.75;5.72;;;;;;;;;;5033423;28;20411;-69
2021/12/29 01:03:26;;;;;;;22.52;5.80;;;;;;;;;;5034053;28;20046;-69
2021/12/29 01:05:51;;;;;;;24.55;5.53;;;;;;;;;;5034127;28;20041;-69
2021/12/29 01:08:17;;;;;;;18.90;5.50;;;;;;;;;;5034319;28;20404;-69
2021/12/29 01:10:44;;;;;;;22.48;6.03;;;;;;;;;;5033511;28;20041;-69
2021/12/29 01:13:11;;;;;;;22.13;5.97;;;;;;;;;;5032327;28;20461;-69
2021/12/29 01:16:16;;;;;;;22.80;5.75;;;;;;;;;;5033835;28;20041;-69
2021/12/29 01:18:34;;;;;;;23.02;5.88;;;;;;;;;;5032635;28;20060;-70
2021/12/29 01:21:00;;;;;;;23.50;5.80;;;;;;;;;;5032338;28;20038;-69
2021/12/29 01:23:26;;;;;;;26.33;5.90;;;;;;;;;;5034027;28;20049;-69
2021/12/29 01:25:52;;;;;;;30.95;6.32;;;;;;;;;;5032896;28;20610;-69
2021/12/29 01:28:18;;;;;;;31.15;6.40;;;;;;;;;;5033632;28;20041;-69
2021/12/29 01:30:44;;;;;;;27.88;6.50;;;;;;;;;;5033510;28;20387;-69
2021/12/29 01:33:10;;;;;;;32.97;7.20;;;;;;;;;;5032800;28;20069;-69
2021/12/29 01:35:37;;;;;;;34.30;7.15;;;;;;;;;;5033247;28;20061;-69
2021/12/29 01:38:04;;;;;;;41.67;8.32;;;;;;;;;;5033167;28;20087;-69
2021/12/29 01:40:31;;;;;;;39.97;7.93;;;;;;;;;;5032967;28;20478;-68
2021/12/29 01:42:57;;;;;;;43.35;9.18;;;;;;;;;;5032581;28;20087;-69
2021/12/29 01:45:24;;;;;;;50.70;9.65;;;;;;;;;;5032038;28;20107;-70
2021/12/29 01:47:50;;;;;;;49.90;9.27;;;;;;;;;;5027295;28;20072;-69
2021/12/29 01:50:16;;;;;;;61.13;10.55;;;;;;;;;;5028281;28;20037;-70
2021/12/29 01:52:42;;;;;;;72.68;11.38;;;;;;;;;;5029952;28;20112;-70
2021/12/29 01:55:12;;;;;;;63.55;10.55;;;;;;;;;;5029194;28;20067;-69
2021/12/29 01:57:38;;;;;;;71.97;11.07;;;;;;;;;;5033624;28;20494;-69
2021/12/29 02:00:06;;;;;;;65.53;10.25;;;;;;;;;;5031840;28;20044;-69
2021/12/29 02:02:32;;;;;;;74.38;11.57;;;;;;;;;;5029059;28;20120;-69
2021/12/29 02:04:58;;;;;;;70.03;10.80;;;;;;;;;;5027509;28;20188;-70
2021/12/29 02:07:24;;;;;;;78.38;11.00;;;;;;;;;;5028826;28;20037;-69
2021/12/29 02:09:50;;;;;;;66.75;11.50;;;;;;;;;;5031589;28;20546;-69
2021/12/29 02:12:16;;;;;;;65.25;10.38;;;;;;;;;;5028278;28;20034;-69
2021/12/29 02:14:43;;;;;;;60.00;9.85;;;;;;;;;;5027167;28;21723;-69
2021/12/29 02:17:09;;;;;;;82.40;10.98;;;;;;;;;;5025711;28;20026;-69
2021/12/29 02:19:42;;;;;;;72.28;11.10;;;;;;;;;;5033170;28;20453;-70
2021/12/29 02:22:19;;;;;;;64.10;10.43;;;;;;;;;;5031246;28;20049;-70
2021/12/29 02:24:52;;;;;;;64.40;9.57;;;;;;;;;;5030397;28;20517;-69
2021/12/29 02:27:18;;;;;;;54.08;9.50;;;;;;;;;;5033369;28;20420;-69
2021/12/29 02:29:47;;;;;;;59.90;10.15;;;;;;;;;;5030377;28;20045;-69
2021/12/29 02:32:13;;;;;;;65.28;9.98;;;;;;;;;;5028159;28;20094;-69
2021/12/29 02:34:39;;;;;;;76.65;9.63;;;;;;;;;;5023204;28;20041;-69
2021/12/29 02:37:05;;;;;;;75.53;10.30;;;;;;;;;;5029135;28;20044;-69
2021/12/29 02:39:33;;;;;;;76.95;10.73;;;;;;;;;;5031184;28;20037;-69
2021/12/29 02:42:01;;;;;;;66.45;10.00;;;;;;;;;;5030129;28;20057;-69
2021/12/29 02:44:29;;;;;;;75.45;11.00;;;;;;;;;;5032944;28;20048;-69
2021/12/29 02:46:56;;;;;;;61.70;9.93;;;;;;;;;;5030931;28;20131;-69
2021/12/29 02:49:22;;;;;;;53.50;9.57;;;;;;;;;;5032851;28;20045;-70
2021/12/29 02:51:48;;;;;;;51.97;8.52;;;;;;;;;;5030803;28;20041;-69
2021/12/29 02:54:16;;;;;;;37.55;7.90;;;;;;;;;;5032013;28;20052;-69
2021/12/29 02:56:42;;;;;;;40.08;7.65;;;;;;;;;;5030571;28;20045;-70
2021/12/29 02:59:07;;;;;;;37.95;7.95;;;;;;;;;;5029990;28;20044;-69
2021/12/29 03:01:33;;;;;;;37.55;8.70;;;;;;;;;;5026506;28;20068;-69
2021/12/29 03:04:03;;;;;;;40.63;7.75;;;;;;;;;;5030931;28;20048;-69
2021/12/29 03:06:29;;;;;;;37.40;8.23;;;;;;;;;;5028014;28;20045;-69
2021/12/29 03:08:55;;;;;;;34.42;7.93;;;;;;;;;;5029836;28;20053;-69
2021/12/29 03:11:21;;;;;;;33.05;7.75;;;;;;;;;;5028078;28;20163;-70
2021/12/29 03:13:47;;;;;;;37.13;8.65;;;;;;;;;;5026716;28;20075;-69
2021/12/29 03:16:13;;;;;;;36.03;8.50;;;;;;;;;;5027034;28;20456;-69
2021/12/29 03:18:40;;;;;;;40.45;8.27;;;;;;;;;;5027913;28;20049;-69
2021/12/29 03:21:06;;;;;;;39.35;9.00;;;;;;;;;;5025304;28;20510;-69
2021/12/29 03:23:32;;;;;;;37.35;9.93;;;;;;;;;;5028681;28;20042;-70
2021/12/29 03:25:58;;;;;;;44.80;9.32;;;;;;;;;;5026979;28;20095;-69
2021/12/29 03:28:24;;;;;;;48.13;11.43;;;;;;;;;;5028584;28;20037;-69
2021/12/29 03:30:53;;;;;;;54.22;11.63;;;;;;;;;;5025922;28;20045;-69
2021/12/29 03:33:19;;;;;;;57.20;12.55;;;;;;;;;;5027922;28;20098;-69
2021/12/29 03:35:47;;;;;;;66.18;14.93;;;;;;;;;;5027760;28;20061;-69
2021/12/29 03:38:14;;;;;;;66.00;14.68;;;;;;;;;;5028490;28;20041;-70
2021/12/29 03:40:41;;;;;;;75.05;16.10;;;;;;;;;;5027196;28;20041;-69
2021/12/29 03:43:08;;;;;;;79.50;15.70;;;;;;;;;;5025195;28;20106;-69
2021/12/29 03:45:34;;;;;;;79.32;16.45;;;;;;;;;;5029455;28;20071;-69
2021/12/29 03:48:00;;;;;;;76.45;15.70;;;;;;;;;;5028722;28;20056;-69
2021/12/29 03:50:26;;;;;;;77.30;15.95;;;;;;;;;;5028503;28;20056;-69
2021/12/29 03:52:52;;;;;;;77.13;16.10;;;;;;;;;;5027692;28;20045;-69
2021/12/29 03:55:18;;;;;;;70.57;15.25;;;;;;;;;;5028051;28;20033;-69
2021/12/29 03:57:44;;;;;;;67.85;16.33;;;;;;;;;;5029012;28;20104;-69
2021/12/29 04:00:12;;;;;;;62.38;15.55;;;;;;;;;;5028189;28;20049;-69
2021/12/29 04:02:38;;;;;;;64.10;14.73;;;;;;;;;;5025977;28;20090;-69
2021/12/29 04:05:05;;;;;;;48.67;13.93;;;;;;;;;;5027947;28;20277;-70
2021/12/29 04:07:31;;;;;;;60.05;14.85;;;;;;;;;;5027761;28;20041;-69
2021/12/29 04:09:57;;;;;;;50.33;14.55;;;;;;;;;;5027159;28;20063;-69
2021/12/29 04:12:23;;;;;;;58.67;14.07;;;;;;;;;;5026285;28;20406;-69
2021/12/29 04:14:49;;;;;;;51.90;13.88;;;;;;;;;;5028031;28;20040;-69
2021/12/29 04:17:18;;;;;;;51.60;14.60;;;;;;;;;;5028494;28;20033;-69
2021/12/29 04:22:30;;;;;;;43.88;13.20;;;;;;;;;;5026053;28;20047;-69
2021/12/29 04:24:56;;;;;;;52.03;13.63;;;;;;;;;;5026976;28;20491;-69
2021/12/29 04:27:24;;;;;;;50.83;14.50;;;;;;;;;;5028036;28;20095;-69
2021/12/29 04:29:50;;;;;;;49.90;14.35;;;;;;;;;;5029865;28;20044;-69
2021/12/29 04:32:15;;;;;;;47.83;14.02;;;;;;;;;;5029221;28;20307;-69
2021/12/29 04:34:41;;;;;;;46.13;13.90;;;;;;;;;;5030602;28;20504;-69
2021/12/29 04:37:08;;;;;;;43.13;14.07;;;;;;;;;;5045380;22;20060;-63
2021/12/29 04:39:33;;;;;;;45.65;13.52;;;;;;;;;;5009924;28;20033;-64
2021/12/29 04:41:59;;;;;;;43.97;13.45;;;;;;;;;;5010768;28;20060;-64
2021/12/29 04:44:25;;;;;;;49.20;14.52;;;;;;;;;;4995239;28;20049;-64
2021/12/29 04:46:54;;;;;;;47.13;13.32;;;;;;;;;;4992967;28;20049;-64
2021/12/29 04:49:25;;;;;;;44.72;12.95;;;;;;;;;;5011868;28;20096;-64
2021/12/29 04:52:10;;;;;;;;;;;;;;;;;;4975664;28;20057;-64
2021/12/29 04:54:37;;;;;;;39.13;11.55;;;;;;;;;;5008433;28;20004;-63
2021/12/29 04:57:04;;;;;;;42.97;12.27;;;;;;;;;;4995778;28;20043;-64
2021/12/29 04:59:30;;;;;;;48.78;12.73;;;;;;;;;;4996751;28;20039;-64
2021/12/29 05:01:56;;;;;;;38.05;12.30;;;;;;;;;;5012259;28;20536;-64
2021/12/29 05:04:30;;;;;;;42.90;13.05;;;;;;;;;;5018260;28;20041;-64
2021/12/29 05:09:41;;;;;;;45.28;12.57;;;;;;;;;;5012111;28;20068;-64
2021/12/29 05:12:07;;;;;;;52.40;13.48;;;;;;;;;;4992534;28;20050;-64
2021/12/29 05:14:33;;;;;;;53.08;14.23;;;;;;;;;;5011792;28;20038;-64
2021/12/29 05:16:59;;;;;;;42.05;13.55;;;;;;;;;;5011805;28;20061;-64
2021/12/29 05:19:25;;;;;;;41.53;12.05;;;;;;;;;;4994082;28;20068;-64
2021/12/29 05:21:51;;;;;;;46.95;14.05;;;;;;;;;;5010629;28;20045;-64
2021/12/29 05:24:17;;;;;;;48.60;14.20;;;;;;;;;;5010191;28;20120;-64
2021/12/29 05:26:43;;;;;;;47.30;14.80;;;;;;;;;;5011707;28;20133;-64
2021/12/29 05:29:10;;;;;;;42.40;13.70;;;;;;;;;;5013792;28;20045;-64
2021/12/29 05:31:36;;;;;;;48.50;13.57;;;;;;;;;;5008728;28;20096;-64
2021/12/29 05:34:02;;;;;;;43.30;14.07;;;;;;;;;;5013569;28;20034;-64
2021/12/29 05:36:29;;;;;;;60.05;15.50;;;;;;;;;;5012000;28;20050;-64
2021/12/29 05:38:56;;;;;;;53.35;15.68;;;;;;;;;;5006366;28;20419;-64
2021/12/29 05:41:22;;;;;;;54.05;14.38;;;;;;;;;;5001741;28;20442;-64
2021/12/29 05:43:48;;;;;;;53.25;15.55;;;;;;;;;;5010787;28;20042;-64
2021/12/29 05:46:14;;;;;;;49.75;15.23;;;;;;;;;;5012951;28;20037;-64
2021/12/29 05:48:40;;;;;;;49.92;14.75;;;;;;;;;;5014001;28;20124;-64
2021/12/29 05:51:07;;;;;;;55.55;14.95;;;;;;;;;;5011061;28;20038;-65
2021/12/29 05:53:33;;;;;;;54.40;15.27;;;;;;;;;;5012797;28;20048;-64
2021/12/29 05:55:59;;;;;;;49.92;15.57;;;;;;;;;;5014143;28;20395;-64
2021/12/29 05:58:25;;;;;;;37.55;13.52;;;;;;;;;;5013391;28;20038;-64
2021/12/29 06:00:51;;;;;;;48.58;14.32;;;;;;;;;;5012363;28;20548;-64
2021/12/29 06:03:19;;;;;;;50.13;15.60;;;;;;;;;;5011427;28;20034;-64
2021/12/29 06:05:45;;;;;;;48.42;15.40;;;;;;;;;;4995486;28;20411;-64
2021/12/29 06:08:11;;;;;;;42.85;14.90;;;;;;;;;;5014111;28;20045;-64
2021/12/29 06:10:37;;;;;;;53.00;15.10;;;;;;;;;;5013001;28;20034;-64
2021/12/29 06:13:03;;;;;;;52.80;15.30;;;;;;;;;;5009508;28;20519;-64
2021/12/29 06:15:29;;;;;;;42.97;15.30;;;;;;;;;;5013179;28;20033;-64
2021/12/29 06:17:55;;;;;;;45.33;14.57;;;;;;;;;;5009716;28;20045;-64
2021/12/29 06:20:21;;;;;;;46.67;14.77;;;;;;;;;;5013367;28;20050;-64
2021/12/29 06:22:47;;;;;;;47.50;14.63;;;;;;;;;;5008353;28;20038;-64
2021/12/29 06:25:14;;;;;;;49.10;14.82;;;;;;;;;;5013296;28;20034;-64
2021/12/29 06:27:40;;;;;;;48.35;14.88;;;;;;;;;;5013527;28;20050;-64
2021/12/29 06:30:08;;;;;;;57.08;16.17;;;;;;;;;;5013365;28;20041;-64
2021/12/29 06:32:34;;;;;;;46.20;14.02;;;;;;;;;;5009994;28;20046;-64
2021/12/29 06:35:00;;;;;;;48.45;15.10;;;;;;;;;;5012833;28;20034;-64
2021/12/29 06:37:26;;;;;;;51.92;13.43;;;;;;;;;;5013102;28;20092;-64
2021/12/29 06:39:52;;;;;;;43.72;12.88;;;;;;;;;;5012991;28;20034;-64
2021/12/29 06:42:18;;;;;;;47.42;13.10;;;;;;;;;;5008015;28;20496;-64
2021/12/29 06:44:45;;;;;;;43.80;12.18;;;;;;;;;;5012647;28;20096;-64
2021/12/29 06:47:11;;;;;;;38.47;12.10;;;;;;;;;;5011858;28;20523;-64
2021/12/29 06:49:38;;;;;;;40.28;12.13;;;;;;;;;;5010494;28;20120;-64
2021/12/29 06:52:04;;;;;;;41.88;11.77;;;;;;;;;;5007809;28;20042;-64
2021/12/29 06:54:31;;;;;;;43.22;12.32;;;;;;;;;;5011950;28;20045;-64
2021/12/29 06:56:57;;;;;;;37.30;11.57;;;;;;;;;;5012640;28;20034;-63
2021/12/29 06:59:23;;;;;;;36.00;10.60;;;;;;;;;;5005882;28;20484;-64
2021/12/29 07:01:49;;;;;;;39.05;11.60;;;;;;;;;;5007091;28;20042;-64
2021/12/29 07:04:15;;;;;;;47.22;12.80;;;;;;;;;;5012859;28;20123;-64
2021/12/29 07:06:41;;;;;;;52.70;14.02;;;;;;;;;;5003451;28;20033;-64
2021/12/29 07:09:07;;;;;;;55.55;13.15;;;;;;;;;;5012574;28;20065;-64
2021/12/29 07:11:34;;;;;;;55.47;13.60;;;;;;;;;;5009796;28;20101;-64
2021/12/29 07:14:03;;;;;;;61.35;13.98;;;;;;;;;;5009428;28;20061;-64
2021/12/29 07:16:29;;;;;;;48.63;13.95;;;;;;;;;;5011385;28;20504;-64
2021/12/29 07:18:55;;;;;;;49.90;13.63;;;;;;;;;;5011665;28;20052;-64
2021/12/29 07:21:21;;;;;;;72.70;14.38;;;;;;;;;;5012023;28;20121;-64
2021/12/29 07:23:47;;;;;;;70.97;15.60;;;;;;;;;;5010564;28;20037;-64
2021/12/29 07:26:13;;;;;;;68.30;15.68;;;;;;;;;;5011844;28;20112;-64
2021/12/29 07:28:39;;;;;;;59.55;14.45;;;;;;;;;;5012106;28;20042;-64
2021/12/29 07:31:05;;;;;;;76.05;15.52;;;;;;;;;;4993218;28;20034;-64
2021/12/29 07:33:33;;;;;;;61.83;15.73;;;;;;;;;;5010110;28;20046;-64
2021/12/29 07:35:59;;;;;;;62.72;14.85;;;;;;;;;;5009067;28;20100;-65
2021/12/29 07:38:25;;;;;;;58.65;13.98;;;;;;;;;;5011372;28;20045;-65
2021/12/29 07:40:51;;;;;;;61.33;14.70;;;;;;;;;;5009807;28;20419;-65
2021/12/29 07:43:18;;;;;;;68.00;14.90;;;;;;;;;;5010022;28;20065;-65
2021/12/29 07:45:44;;;;;;;55.67;14.05;;;;;;;;;;5011472;28;20161;-65
2021/12/29 07:48:10;;;;;;;60.50;14.13;;;;;;;;;;5012013;28;20511;-65
2021/12/29 07:50:36;;;;;;;66.60;14.13;;;;;;;;;;4997536;28;20066;-65
2021/12/29 07:53:03;;;;;;;66.65;14.68;;;;;;;;;;5007304;28;20109;-65
2021/12/29 07:55:29;;;;;;;68.53;14.30;;;;;;;;;;5011099;28;20099;-65
2021/12/29 07:57:55;;;;;;;76.22;15.05;;;;;;;;;;5010963;28;20038;-65
2021/12/29 08:00:21;;;;;;;65.40;14.02;;;;;;;;;;5010887;28;20447;-65
2021/12/29 08:02:50;;;;;;;68.85;15.65;;;;;;;;;;5002468;28;20104;-65
2021/12/29 08:05:16;;;;;;;73.05;14.57;;;;;;;;;;5011140;28;20068;-65
2021/12/29 08:07:42;;;;;;;66.15;14.23;;;;;;;;;;5006914;28;20156;-65
2021/12/29 08:10:08;;;;;;;79.22;15.68;;;;;;;;;;4998307;28;20121;-65
2021/12/29 08:12:35;;;;;;;68.55;14.85;;;;;;;;;;5011358;28;20483;-65
2021/12/29 08:15:01;;;;;;;74.18;15.25;;;;;;;;;;5027509;28;20507;-65
2021/12/29 08:17:31;;;;;;;65.72;15.23;;;;;;;;;;5025656;28;20065;-64
2021/12/29 08:19:57;;;;;;;63.22;14.93;;;;;;;;;;5004729;28;20492;-65
2021/12/29 08:22:23;;;;;;;67.10;14.75;;;;;;;;;;4990640;28;20057;-65
2021/12/29 08:24:50;;;;;;;71.28;15.20;;;;;;;;;;5002079;28;20104;-65
2021/12/29 08:27:16;;;;;;;90.13;15.70;;;;;;;;;;5002810;28;20124;-65
2021/12/29 08:29:41;;;;;;;60.25;13.63;;;;;;;;;;5010421;28;20121;-65
2021/12/29 08:32:08;;;;;;;62.55;14.27;;;;;;;;;;5008550;28;20523;-65
2021/12/29 08:34:34;;;;;;;64.47;13.20;;;;;;;;;;5009507;28;20125;-65
2021/12/29 08:37:00;;;;;;;67.90;13.48;;;;;;;;;;5010853;28;20176;-65
2021/12/29 08:39:26;;;;;;;61.83;13.57;;;;;;;;;;5000718;28;20405;-65
2021/12/29 08:41:52;;;;;;;62.85;13.15;;;;;;;;;;5000012;28;20038;-65
2021/12/29 08:44:18;;;;;;;50.30;11.23;;;;;;;;;;5010202;28;20040;-64
2021/12/29 08:46:44;;;;;;;50.63;12.55;;;;;;;;;;5009954;28;20057;-65
2021/12/29 08:49:10;;;;;;;54.63;12.07;;;;;;;;;;4999611;28;20037;-65
2021/12/29 08:51:36;;;;;;;61.28;12.23;;;;;;;;;;5010170;28;20038;-64
2021/12/29 08:54:03;;;;;;;60.47;12.07;;;;;;;;;;5011411;28;20044;-64
2021/12/29 08:56:29;;;;;;;51.08;12.07;;;;;;;;;;5010926;28;20034;-65
2021/12/29 08:58:55;;;;;;;45.35;11.73;;;;;;;;;;5010049;28;20034;-64
2021/12/29 09:01:24;;;;;;;48.28;11.70;;;;;;;;;;5009082;28;20117;-64
2021/12/29 09:03:50;;;;;;;44.72;11.82;;;;;;;;;;5010821;28;20042;-64
2021/12/29 09:06:17;;;;;;;53.33;11.80;;;;;;;;;;5010323;28;20460;-64
2021/12/29 09:08:43;;;;;;;50.90;11.50;;;;;;;;;;5011363;28;20116;-64
2021/12/29 09:11:09;;;;;;;51.33;11.73;;;;;;;;;;5002732;28;20038;-64
2021/12/29 09:13:36;;;;;;;67.88;12.15;;;;;;;;;;5008933;28;20042;-64
2021/12/29 09:16:03;;;;;;;53.75;11.52;;;;;;;;;;5010076;28;20034;-65
2021/12/29 09:18:30;;;;;;;54.05;11.85;;;;;;;;;;5011395;28;20125;-64
2021/12/29 09:21:02;;;;;;;57.08;12.05;;;;;;;;;;5012339;28;20084;-64
2021/12/29 09:23:28;;;;;;;64.55;12.77;;;;;;;;;;5012647;28;20484;-65
2021/12/29 09:25:55;;;;;;;68.10;12.48;;;;;;;;;;5012646;28;20077;-65
2021/12/29 09:28:22;;;;;;;66.32;13.15;;;;;;;;;;5014235;28;20125;-65
2021/12/29 09:30:48;;;;;;;59.63;13.02;;;;;;;;;;4995212;28;20038;-65
2021/12/29 09:33:16;;;;;;;70.32;13.10;;;;;;;;;;5014627;28;20034;-64
2021/12/29 09:35:42;;;;;;;66.13;12.82;;;;;;;;;;4993536;28;20041;-64
2021/12/29 09:38:08;;;;;;;57.35;11.82;;;;;;;;;;5007230;28;20044;-65
2021/12/29 09:40:34;;;;;;;42.40;11.25;;;;;;;;;;5011437;28;20115;-64
2021/12/29 09:43:01;;;;;;;44.10;10.35;;;;;;;;;;4988418;28;20037;-65
2021/12/29 09:45:27;;;;;;;54.88;12.15;;;;;;;;;;5013399;28;20503;-65
2021/12/29 09:47:55;;;;;;;46.72;10.27;;;;;;;;;;5013513;28;20057;-65
2021/12/29 09:50:21;;;;;;;39.30;10.43;;;;;;;;;;5014246;28;20038;-65
2021/12/29 09:52:47;;;;;;;41.28;9.95;;;;;;;;;;5008991;28;20403;-65
2021/12/29 09:55:18;;;;;;;44.00;9.88;;;;;;;;;;4995171;28;20466;-65
2021/12/29 09:57:45;;;;;;;;;;;;;;;;;;5012260;28;20056;-65
2021/12/29 10:00:19;;;;;;;41.78;10.52;;;;;;;;;;5011189;28;19949;-62
2021/12/29 10:02:45;;;;;;;42.22;9.80;;;;;;;;;;5011671;28;20042;-62
2021/12/29 10:05:11;;;;;;;44.70;9.95;;;;;;;;;;5005658;28;20052;-62
2021/12/29 10:07:38;;;;;;;34.28;9.65;;;;;;;;;;5009100;28;20034;-62
2021/12/29 10:10:14;;;;;;;30.85;9.65;;;;;;;;;;5014155;28;20037;-62
2021/12/29 10:12:44;;;;;;;35.13;9.65;;;;;;;;;;4998636;28;20037;-62
2021/12/29 10:15:10;;;;;;;46.40;10.55;;;;;;;;;;5006168;28;20373;-63
2021/12/29 10:17:36;;;;;;;53.05;11.35;;;;;;;;;;5011762;28;20044;-62
2021/12/29 10:20:20;;;;;;;42.90;10.77;;;;;;;;;;5013931;28;20073;-62
2021/12/29 10:22:55;;;;;;;42.88;10.95;;;;;;;;;;5008673;28;20076;-62
2021/12/29 10:25:24;;;;;;;40.70;10.63;;;;;;;;;;5011377;28;20038;-62
2021/12/29 10:27:51;;;;;;;42.50;10.50;;;;;;;;;;5012301;28;20046;-62
2021/12/29 10:30:19;;;;;;;38.60;10.50;;;;;;;;;;5026169;28;20080;-62
2021/12/29 10:32:45;;;;;;;37.60;10.93;;;;;;;;;;5012687;28;20042;-62
2021/12/29 10:35:19;;;;;;;40.78;11.30;;;;;;;;;;5013125;28;20046;-63
2021/12/29 10:37:45;;;;;;;37.38;9.52;;;;;;;;;;5056652;22;20071;-66
2021/12/29 10:40:15;;;;;;;29.40;9.65;;;;;;;;;;5034225;28;20060;-66
2021/12/29 10:42:52;;;;;;;31.43;9.87;;;;;;;;;;5049275;28;20048;-66
2021/12/29 10:45:27;;;;;;;31.05;9.88;;;;;;;;;;5045592;28;20338;-66
2021/12/29 10:47:53;;;;;;;31.50;10.18;;;;;;;;;;5033892;28;20132;-67
2021/12/29 10:50:19;;;;;;;26.08;9.27;;;;;;;;;;5059921;28;20128;-67
2021/12/29 10:52:46;;;;;;;28.10;10.10;;;;;;;;;;5045382;28;20486;-66
2021/12/29 10:55:36;;;;;;;29.13;9.82;;;;;;;;;;5051407;28;20383;-66
2021/12/29 10:58:07;;;;;;;29.58;9.35;;;;;;;;;;5034336;28;20138;-67
2021/12/29 11:00:34;;;;;;;26.77;9.52;;;;;;;;;;5052157;28;20083;-67
2021/12/29 11:03:13;;;;;;;31.25;10.32;;;;;;;;;;5033094;28;20043;-66
2021/12/29 11:05:40;;;;;;;33.65;11.38;;;;;;;;;;5043940;28;20099;-66
2021/12/29 11:08:10;;;;;;;27.55;9.95;;;;;;;;;;5034466;28;20110;-67
2021/12/29 11:10:36;;;;;;;32.50;10.65;;;;;;;;;;5027718;28;20441;-67
2021/12/29 11:13:02;;;;;;;36.08;10.32;;;;;;;;;;5014989;28;20053;-67
2021/12/29 11:15:30;;;;;;;26.67;10.40;;;;;;;;;;5047629;28;20155;-67
2021/12/29 11:18:01;;;;;;;32.70;9.95;;;;;;;;;;5049323;28;20032;-67
2021/12/29 11:20:28;;;;;;;28.45;10.35;;;;;;;;;;5046925;28;20036;-67
2021/12/29 11:23:05;;;;;;;35.28;10.73;;;;;;;;;;5045400;28;20041;-67
2021/12/29 11:25:32;;;;;;;37.08;10.77;;;;;;;;;;5035038;28;20494;-67
2021/12/29 11:27:58;;;;;;;33.92;9.75;;;;;;;;;;5045403;28;20044;-67
2021/12/29 11:30:24;;;;;;;34.30;10.52;;;;;;;;;;5051396;28;20087;-68
2021/12/29 11:32:50;;;;;;;35.58;11.02;;;;;;;;;;5047340;28;20482;-67
2021/12/29 11:35:17;;;;;;;34.42;10.90;;;;;;;;;;5049515;28;20047;-67
2021/12/29 11:37:54;;;;;;;28.35;9.70;;;;;;;;;;5050222;28;20051;-68
2021/12/29 11:40:21;;;;;;;33.42;10.27;;;;;;;;;;5050621;28;20037;-67
2021/12/29 11:42:48;;;;;;;34.80;11.00;;;;;;;;;;5030977;28;20810;-68
2021/12/29 11:45:14;;;;;;;34.92;11.30;;;;;;;;;;5050435;28;20045;-68
2021/12/29 11:47:41;;;;;;;41.67;10.70;;;;;;;;;;5031068;28;20048;-67
2021/12/29 11:50:08;;;;;;;31.63;10.73;;;;;;;;;;5050074;28;20071;-66
2021/12/29 11:52:43;;;;;;;33.17;10.50;;;;;;;;;;5044796;28;20040;-66
2021/12/29 11:55:13;;;;;;;35.85;9.98;;;;;;;;;;5050106;28;20118;-66
2021/12/29 11:57:39;;;;;;;44.75;10.40;;;;;;;;;;5033306;28;20178;-67
2021/12/29 12:00:10;;;;;;;31.67;10.98;;;;;;;;;;5032534;28;20039;-66
2021/12/29 12:02:36;;;;;;;27.13;9.90;;;;;;;;;;5045775;28;20041;-66
2021/12/29 12:05:03;;;;;;;31.17;9.85;;;;;;;;;;5032733;28;20450;-66
2021/12/29 12:07:29;;;;;;;37.40;10.75;;;;;;;;;;5033677;28;20048;-66
2021/12/29 12:09:59;;;;;;;23.45;9.98;;;;;;;;;;5050682;28;20048;-66
2021/12/29 12:12:34;;;;;;;33.25;10.07;;;;;;;;;;5047114;28;20053;-66
2021/12/29 12:15:00;;;;;;;31.92;10.55;;;;;;;;;;5051315;28;20041;-66
2021/12/29 12:17:28;;;;;;;28.58;10.13;;;;;;;;;;5051097;28;20544;-66
2021/12/29 12:20:00;;;;;;;35.45;10.20;;;;;;;;;;5049594;28;20045;-66
2021/12/29 12:22:27;;;;;;;31.02;10.40;;;;;;;;;;5041868;28;20040;-66
2021/12/29 12:24:53;;;;;;;25.90;9.43;;;;;;;;;;5032929;28;20132;-66
2021/12/29 12:27:36;;;;;;;30.25;10.95;;;;;;;;;;5050567;28;20132;-67
2021/12/29 12:30:06;;;;;;;32.35;10.90;;;;;;;;;;5017658;28;20049;-68
2021/12/29 12:32:43;;;;;;;34.65;10.65;;;;;;;;;;5043768;28;20082;-67
2021/12/29 12:35:09;;;;;;;33.33;10.43;;;;;;;;;;5045392;28;20474;-66
2021/12/29 12:37:36;;;;;;;28.70;11.52;;;;;;;;;;5047806;28;20086;-66
2021/12/29 12:40:12;;;;;;;30.88;11.00;;;;;;;;;;5050289;28;20041;-67
2021/12/29 12:42:38;;;;;;;27.60;11.23;;;;;;;;;;5044091;28;20044;-66
2021/12/29 12:45:15;;;;;;;33.63;11.38;;;;;;;;;;5050443;28;20037;-66
2021/12/29 12:47:41;;;;;;;29.23;10.80;;;;;;;;;;5051400;28;20045;-66
2021/12/29 12:50:07;;;;;;;33.30;12.15;;;;;;;;;;5046613;28;20120;-66
2021/12/29 12:52:41;;;;;;;35.42;12.45;;;;;;;;;;5034649;28;20483;-66
2021/12/29 12:55:08;;;;;;;40.33;13.05;;;;;;;;;;5035650;28;20044;-66
2021/12/29 12:57:34;;;;;;;35.85;12.80;;;;;;;;;;5050723;28;20056;-66
2021/12/29 13:00:06;;;;;;;39.35;13.23;;;;;;;;;;5049638;28;20037;-66
2021/12/29 13:02:36;;;;;;;39.15;12.80;;;;;;;;;;5050008;28;20055;-68
2021/12/29 13:05:23;;;;;;;39.27;13.93;;;;;;;;;;5052886;28;20064;-67
2021/12/29 13:07:59;;;;;;;35.50;12.75;;;;;;;;;;5032283;28;20041;-67
2021/12/29 13:10:27;;;;;;;32.40;12.95;;;;;;;;;;5052562;28;20048;-68
2021/12/29 13:12:58;;;;;;;37.67;13.05;;;;;;;;;;5051401;28;20033;-67
2021/12/29 13:15:24;;;;;;;;;;;;;;;;;;5053373;28;20090;-67
2021/12/29 13:17:50;;;;;;;37.00;12.75;;;;;;;;;;5052987;28;19921;-67
2021/12/29 13:20:17;;;;;;;39.67;13.88;;;;;;;;;;5036178;28;20037;-67
2021/12/29 13:22:43;;;;;;;37.03;13.38;;;;;;;;;;5050645;28;20068;-67
2021/12/29 13:25:19;;;;;;;35.33;14.52;;;;;;;;;;5054211;28;20041;-68
2021/12/29 13:27:53;;;;;;;32.17;14.15;;;;;;;;;;5035682;28;20557;-67
2021/12/29 13:30:18;;;;;;;35.83;13.38;;;;;;;;;;5034576;28;20455;-67
2021/12/29 13:32:52;;;;;;;35.25;13.35;;;;;;;;;;5031770;28;20080;-67
2021/12/29 13:35:23;;;;;;;39.92;13.75;;;;;;;;;;5054108;28;20041;-67
2021/12/29 13:37:49;;;;;;;39.53;14.02;;;;;;;;;;5053484;28;20037;-67
2021/12/29 13:40:15;;;;;;;32.72;13.27;;;;;;;;;;5054092;28;20033;-67
2021/12/29 13:42:42;;;;;;;33.53;12.90;;;;;;;;;;5018220;28;20047;-67
2021/12/29 13:45:19;;;;;;;32.00;13.48;;;;;;;;;;5054041;28;20483;-67
2021/12/29 13:47:46;;;;;;;38.35;13.98;;;;;;;;;;5053469;28;20048;-67
2021/12/29 13:50:12;;;;;;;33.15;13.85;;;;;;;;;;5054291;28;20445;-67
2021/12/29 13:52:38;;;;;;;28.50;14.25;;;;;;;;;;5048963;28;20410;-67
2021/12/29 13:55:04;;;;;;;38.53;14.50;;;;;;;;;;5053232;28;20047;-67
2021/12/29 13:57:33;;;;;;;34.10;14.13;;;;;;;;;;5053324;28;20132;-67
2021/12/29 13:59:59;;;;;;;34.95;14.13;;;;;;;;;;5053070;28;20045;-67
2021/12/29 14:02:25;;;;;;;36.88;14.63;;;;;;;;;;5032105;28;20457;-67
2021/12/29 14:04:52;;;;;;;34.75;14.38;;;;;;;;;;5053164;28;20037;-67
2021/12/29 14:07:20;;;;;;;38.28;15.63;;;;;;;;;;5052944;28;20037;-68
2021/12/29 14:09:47;;;;;;;36.42;16.08;;;;;;;;;;5032348;28;20045;-67
2021/12/29 14:12:14;;;;;;;29.17;14.60;;;;;;;;;;5049788;28;20041;-67
2021/12/29 14:14:41;;;;;;;35.38;15.43;;;;;;;;;;5049821;28;20052;-67
2021/12/29 14:17:21;;;;;;;33.97;16.27;;;;;;;;;;5052156;28;20075;-67
2021/12/29 14:19:47;;;;;;;36.03;16.13;;;;;;;;;;5048205;28;20516;-68
2021/12/29 14:22:23;;;;;;;39.08;15.77;;;;;;;;;;5049401;28;20544;-67
2021/12/29 14:24:50;;;;;;;36.55;16.90;;;;;;;;;;5052185;28;20068;-67
2021/12/29 14:27:21;;;;;;;37.97;16.40;;;;;;;;;;5052175;28;20033;-67